sensor_id;sensor_type;location;lat;lon;timestamp;P1;durP1;ratioP1;P2;durP2;ratioP2
4061;SDS011;2046;47.064;15.456;2022-10-31T00:01:31;3.22;;;2.40;;
4061;SDS011;2046;47.064;15.456;2022-10-31T00:03:58;2.90;;;2.70;;
4061;SDS011;2046;47.064;15.456;2022-10-31T00:06:24;2.78;;;2.58;;
4061;SDS011;2046;47.064;15.456;2022-10-31T00:08:55;2.45;;;2.25;;
4061;SDS011;2046;47.064;15.456;2022-10-31T00:11:22;2.60;;;2.40;;
4061;SDS011;2046;47.064;15.456;2022-10-31T00:13:49;1.95;;;1.85;;
4061;SDS011;2046;47.064;15.456;2022-10-31T00:16:17;2.60;;;2.40;;
4061;SDS011;2046;47.064;15.456;2022-10-31T00:18:43;2.47;;;2.33;;
4061;SDS011;2046;47.064;15.456;2022-10-31T00:21:10;2.60;;;2.40;;
4061;SDS011;2046;47.064;15.456;2022-10-31T00:23:37;2.60;;;2.30;;
4061;SDS011;2046;47.064;15.456;2022-10-31T00:26:03;2.90;;;2.70;;
4061;SDS011;2046;47.064;15.456;2022-10-31T00:28:30;2.92;;;2.60;;
4061;SDS011;2046;47.064;15.456;2022-10-31T00:31:01;2.67;;;2.42;;
4061;SDS011;2046;47.064;15.456;2022-10-31T00:33:27;2.78;;;2.58;;
4061;SDS011;2046;47.064;15.456;2022-10-31T00:35:54;2.60;;;2.40;;
4061;SDS011;2046;47.064;15.456;2022-10-31T00:38:21;2.55;;;2.35;;
4061;SDS011;2046;47.064;15.456;2022-10-31T00:40:47;2.65;;;2.10;;
4061;SDS011;2046;47.064;15.456;2022-10-31T00:43:14;2.65;;;2.45;;
4061;SDS011;2046;47.064;15.456;2022-10-31T00:45:41;2.05;;;1.83;;
4061;SDS011;2046;47.064;15.456;2022-10-31T00:48:08;2.50;;;2.30;;
4061;SDS011;2046;47.064;15.456;2022-10-31T00:50:35;2.42;;;2.22;;
4061;SDS011;2046;47.064;15.456;2022-10-31T00:53:02;2.40;;;2.20;;
4061;SDS011;2046;47.064;15.456;2022-10-31T00:55:28;3.78;;;2.20;;
4061;SDS011;2046;47.064;15.456;2022-10-31T00:57:55;2.58;;;2.38;;
4061;SDS011;2046;47.064;15.456;2022-10-31T01:00:22;3.55;;;2.10;;
4061;SDS011;2046;47.064;15.456;2022-10-31T01:02:49;2.55;;;2.35;;
4061;SDS011;2046;47.064;15.456;2022-10-31T01:05:15;2.47;;;2.17;;
4061;SDS011;2046;47.064;15.456;2022-10-31T01:07:42;3.22;;;2.40;;
4061;SDS011;2046;47.064;15.456;2022-10-31T01:10:09;2.80;;;2.50;;
4061;SDS011;2046;47.064;15.456;2022-10-31T01:12:39;2.67;;;2.47;;
4061;SDS011;2046;47.064;15.456;2022-10-31T01:15:07;2.67;;;2.38;;
4061;SDS011;2046;47.064;15.456;2022-10-31T01:17:34;2.63;;;2.20;;
4061;SDS011;2046;47.064;15.456;2022-10-31T01:20:00;2.55;;;2.05;;
4061;SDS011;2046;47.064;15.456;2022-10-31T01:22:27;2.40;;;2.20;;
4061;SDS011;2046;47.064;15.456;2022-10-31T01:24:54;2.35;;;2.15;;
4061;SDS011;2046;47.064;15.456;2022-10-31T01:27:20;2.50;;;2.30;;
4061;SDS011;2046;47.064;15.456;2022-10-31T01:29:47;2.78;;;2.50;;
4061;SDS011;2046;47.064;15.456;2022-10-31T01:32:14;2.03;;;1.88;;
4061;SDS011;2046;47.064;15.456;2022-10-31T01:34:40;3.72;;;2.03;;
4061;SDS011;2046;47.064;15.456;2022-10-31T01:37:07;2.85;;;2.45;;
4061;SDS011;2046;47.064;15.456;2022-10-31T01:39:34;3.25;;;2.20;;
4061;SDS011;2046;47.064;15.456;2022-10-31T01:42:00;2.40;;;2.20;;
4061;SDS011;2046;47.064;15.456;2022-10-31T01:47:00;2.05;;;1.90;;
4061;SDS011;2046;47.064;15.456;2022-10-31T01:49:40;2.30;;;2.10;;
4061;SDS011;2046;47.064;15.456;2022-10-31T01:52:20;2.38;;;2.17;;
4061;SDS011;2046;47.064;15.456;2022-10-31T01:55:11;2.45;;;2.25;;
4061;SDS011;2046;47.064;15.456;2022-10-31T01:57:35;2.83;;;2.15;;
4061;SDS011;2046;47.064;15.456;2022-10-31T02:00:06;2.30;;;2.10;;
4061;SDS011;2046;47.064;15.456;2022-10-31T02:02:34;2.50;;;2.30;;
4061;SDS011;2046;47.064;15.456;2022-10-31T02:05:01;2.38;;;2.13;;
4061;SDS011;2046;47.064;15.456;2022-10-31T02:08:11;2.80;;;2.40;;
4061;SDS011;2046;47.064;15.456;2022-10-31T02:10:19;2.50;;;2.30;;
4061;SDS011;2046;47.064;15.456;2022-10-31T02:12:46;2.42;;;2.22;;
4061;SDS011;2046;47.064;15.456;2022-10-31T02:15:13;2.20;;;2.10;;
4061;SDS011;2046;47.064;15.456;2022-10-31T02:17:40;2.70;;;2.28;;
4061;SDS011;2046;47.064;15.456;2022-10-31T02:20:19;2.40;;;2.20;;
4061;SDS011;2046;47.064;15.456;2022-10-31T02:34:01;2.22;;;2.03;;
4061;SDS011;2046;47.064;15.456;2022-10-31T02:36:32;1.83;;;1.73;;
4061;SDS011;2046;47.064;15.456;2022-10-31T02:39:11;2.33;;;2.13;;
4061;SDS011;2046;47.064;15.456;2022-10-31T02:44:16;2.33;;;2.10;;
4061;SDS011;2046;47.064;15.456;2022-10-31T02:47:21;2.42;;;2.00;;
4061;SDS011;2046;47.064;15.456;2022-10-31T02:54:41;1.98;;;1.88;;
4061;SDS011;2046;47.064;15.456;2022-10-31T02:57:08;2.20;;;2.00;;
4061;SDS011;2046;47.064;15.456;2022-10-31T02:59:35;2.20;;;2.00;;
4061;SDS011;2046;47.064;15.456;2022-10-31T03:04:45;2.17;;;2.00;;
4061;SDS011;2046;47.064;15.456;2022-10-31T03:07:21;2.17;;;1.98;;
4061;SDS011;2046;47.064;15.456;2022-10-31T03:12:38;1.77;;;1.67;;
4061;SDS011;2046;47.064;15.456;2022-10-31T03:15:14;5.28;;;1.80;;
4061;SDS011;2046;47.064;15.456;2022-10-31T03:17:53;3.42;;;2.20;;
4061;SDS011;2046;47.064;15.456;2022-10-31T03:20:28;2.30;;;2.10;;
4061;SDS011;2046;47.064;15.456;2022-10-31T03:22:56;2.13;;;1.77;;
4061;SDS011;2046;47.064;15.456;2022-10-31T03:25:23;1.88;;;1.77;;
4061;SDS011;2046;47.064;15.456;2022-10-31T03:27:50;1.80;;;1.70;;
4061;SDS011;2046;47.064;15.456;2022-10-31T03:30:17;2.05;;;1.60;;
4061;SDS011;2046;47.064;15.456;2022-10-31T03:32:45;1.60;;;1.50;;
4061;SDS011;2046;47.064;15.456;2022-10-31T03:35:14;1.77;;;1.67;;
4061;SDS011;2046;47.064;15.456;2022-10-31T03:37:41;1.60;;;1.50;;
4061;SDS011;2046;47.064;15.456;2022-10-31T03:40:08;1.70;;;1.60;;
4061;SDS011;2046;47.064;15.456;2022-10-31T03:42:37;3.15;;;1.70;;
4061;SDS011;2046;47.064;15.456;2022-10-31T03:47:32;1.75;;;1.58;;
4061;SDS011;2046;47.064;15.456;2022-10-31T03:49:59;1.90;;;1.80;;
4061;SDS011;2046;47.064;15.456;2022-10-31T03:57:35;1.70;;;1.60;;
4061;SDS011;2046;47.064;15.456;2022-10-31T04:00:11;1.75;;;1.65;;
4061;SDS011;2046;47.064;15.456;2022-10-31T04:02:40;1.60;;;1.50;;
4061;SDS011;2046;47.064;15.456;2022-10-31T04:05:08;1.60;;;1.50;;
4061;SDS011;2046;47.064;15.456;2022-10-31T04:07:40;1.50;;;1.40;;
4061;SDS011;2046;47.064;15.456;2022-10-31T04:10:08;1.52;;;1.42;;
4061;SDS011;2046;47.064;15.456;2022-10-31T04:12:36;1.48;;;1.42;;
4061;SDS011;2046;47.064;15.456;2022-10-31T04:15:04;1.50;;;1.40;;
4061;SDS011;2046;47.064;15.456;2022-10-31T04:17:33;1.42;;;1.33;;
4061;SDS011;2046;47.064;15.456;2022-10-31T04:20:00;1.20;;;1.20;;
4061;SDS011;2046;47.064;15.456;2022-10-31T04:22:27;1.38;;;1.30;;
4061;SDS011;2046;47.064;15.456;2022-10-31T04:24:54;1.33;;;1.25;;
4061;SDS011;2046;47.064;15.456;2022-10-31T04:27:20;1.30;;;1.25;;
4061;SDS011;2046;47.064;15.456;2022-10-31T04:29:47;1.45;;;1.35;;
4061;SDS011;2046;47.064;15.456;2022-10-31T04:32:16;1.60;;;1.50;;
4061;SDS011;2046;47.064;15.456;2022-10-31T04:34:42;1.50;;;1.40;;
4061;SDS011;2046;47.064;15.456;2022-10-31T04:37:09;1.33;;;1.23;;
4061;SDS011;2046;47.064;15.456;2022-10-31T04:39:35;1.10;;;1.10;;
4061;SDS011;2046;47.064;15.456;2022-10-31T04:42:02;1.40;;;1.30;;
4061;SDS011;2046;47.064;15.456;2022-10-31T04:44:28;1.08;;;1.08;;
4061;SDS011;2046;47.064;15.456;2022-10-31T04:46:55;1.52;;;1.42;;
4061;SDS011;2046;47.064;15.456;2022-10-31T04:49:21;3.25;;;1.48;;
4061;SDS011;2046;47.064;15.456;2022-10-31T04:51:48;1.08;;;1.08;;
4061;SDS011;2046;47.064;15.456;2022-10-31T04:54:15;1.50;;;1.40;;
4061;SDS011;2046;47.064;15.456;2022-10-31T04:56:41;1.50;;;1.40;;
4061;SDS011;2046;47.064;15.456;2022-10-31T04:59:08;1.13;;;1.13;;
4061;SDS011;2046;47.064;15.456;2022-10-31T05:01:34;1.38;;;1.30;;
4061;SDS011;2046;47.064;15.456;2022-10-31T05:04:01;1.05;;;1.05;;
4061;SDS011;2046;47.064;15.456;2022-10-31T05:06:28;1.23;;;1.20;;
4061;SDS011;2046;47.064;15.456;2022-10-31T05:08:54;2.40;;;1.10;;
4061;SDS011;2046;47.064;15.456;2022-10-31T05:11:21;1.27;;;1.20;;
4061;SDS011;2046;47.064;15.456;2022-10-31T05:13:47;3.05;;;1.13;;
4061;SDS011;2046;47.064;15.456;2022-10-31T05:16:14;1.38;;;1.27;;
4061;SDS011;2046;47.064;15.456;2022-10-31T05:18:40;1.35;;;1.30;;
4061;SDS011;2046;47.064;15.456;2022-10-31T05:21:07;1.05;;;1.05;;
4061;SDS011;2046;47.064;15.456;2022-10-31T05:23:33;1.38;;;1.27;;
4061;SDS011;2046;47.064;15.456;2022-10-31T05:26:00;1.40;;;1.30;;
4061;SDS011;2046;47.064;15.456;2022-10-31T05:28:26;1.38;;;1.27;;
4061;SDS011;2046;47.064;15.456;2022-10-31T05:30:53;1.35;;;1.33;;
4061;SDS011;2046;47.064;15.456;2022-10-31T05:33:20;1.80;;;1.70;;
4061;SDS011;2046;47.064;15.456;2022-10-31T05:35:46;1.30;;;1.20;;
4061;SDS011;2046;47.064;15.456;2022-10-31T05:38:13;1.13;;;1.02;;
4061;SDS011;2046;47.064;15.456;2022-10-31T05:40:39;1.48;;;1.38;;
4061;SDS011;2046;47.064;15.456;2022-10-31T05:43:06;1.20;;;1.10;;
4061;SDS011;2046;47.064;15.456;2022-10-31T05:45:33;2.65;;;1.20;;
4061;SDS011;2046;47.064;15.456;2022-10-31T05:48:00;1.15;;;1.13;;
4061;SDS011;2046;47.064;15.456;2022-10-31T05:50:28;1.15;;;1.13;;
4061;SDS011;2046;47.064;15.456;2022-10-31T05:52:56;1.15;;;1.13;;
4061;SDS011;2046;47.064;15.456;2022-10-31T05:55:23;1.10;;;1.10;;
4061;SDS011;2046;47.064;15.456;2022-10-31T05:57:49;1.02;;;1.00;;
4061;SDS011;2046;47.064;15.456;2022-10-31T06:00:16;1.27;;;1.23;;
4061;SDS011;2046;47.064;15.456;2022-10-31T06:02:43;1.23;;;1.10;;
4061;SDS011;2046;47.064;15.456;2022-10-31T06:05:10;1.60;;;1.35;;
4061;SDS011;2046;47.064;15.456;2022-10-31T06:07:36;4.38;;;1.55;;
4061;SDS011;2046;47.064;15.456;2022-10-31T06:10:04;1.55;;;1.45;;
4061;SDS011;2046;47.064;15.456;2022-10-31T06:12:31;1.50;;;1.40;;
4061;SDS011;2046;47.064;15.456;2022-10-31T06:14:57;1.25;;;1.20;;
4061;SDS011;2046;47.064;15.456;2022-10-31T06:17:24;1.20;;;1.15;;
4061;SDS011;2046;47.064;15.456;2022-10-31T06:19:50;1.38;;;1.30;;
4061;SDS011;2046;47.064;15.456;2022-10-31T06:22:17;1.75;;;1.58;;
4061;SDS011;2046;47.064;15.456;2022-10-31T06:24:43;1.20;;;1.20;;
4061;SDS011;2046;47.064;15.456;2022-10-31T06:27:10;1.65;;;1.45;;
4061;SDS011;2046;47.064;15.456;2022-10-31T06:29:36;1.30;;;1.20;;
4061;SDS011;2046;47.064;15.456;2022-10-31T06:32:03;4.75;;;1.08;;
4061;SDS011;2046;47.064;15.456;2022-10-31T06:34:29;1.27;;;1.27;;
4061;SDS011;2046;47.064;15.456;2022-10-31T06:36:56;2.85;;;1.38;;
4061;SDS011;2046;47.064;15.456;2022-10-31T06:39:22;1.38;;;1.33;;
4061;SDS011;2046;47.064;15.456;2022-10-31T06:41:49;1.73;;;1.30;;
4061;SDS011;2046;47.064;15.456;2022-10-31T06:44:15;2.58;;;1.60;;
4061;SDS011;2046;47.064;15.456;2022-10-31T06:46:42;1.85;;;1.60;;
4061;SDS011;2046;47.064;15.456;2022-10-31T06:49:08;1.58;;;1.48;;
4061;SDS011;2046;47.064;15.456;2022-10-31T06:51:35;1.33;;;1.23;;
4061;SDS011;2046;47.064;15.456;2022-10-31T06:54:01;1.92;;;1.60;;
4061;SDS011;2046;47.064;15.456;2022-10-31T06:56:28;1.67;;;1.25;;
4061;SDS011;2046;47.064;15.456;2022-10-31T06:58:54;2.25;;;1.60;;
4061;SDS011;2046;47.064;15.456;2022-10-31T07:01:21;2.38;;;1.27;;
4061;SDS011;2046;47.064;15.456;2022-10-31T07:03:47;2.70;;;1.58;;
4061;SDS011;2046;47.064;15.456;2022-10-31T07:06:14;3.60;;;1.80;;
4061;SDS011;2046;47.064;15.456;2022-10-31T07:08:40;3.00;;;1.65;;
4061;SDS011;2046;47.064;15.456;2022-10-31T07:11:07;5.13;;;1.55;;
4061;SDS011;2046;47.064;15.456;2022-10-31T07:13:33;4.85;;;2.00;;
4061;SDS011;2046;47.064;15.456;2022-10-31T07:16:01;4.82;;;1.65;;
4061;SDS011;2046;47.064;15.456;2022-10-31T07:18:28;2.72;;;1.85;;
4061;SDS011;2046;47.064;15.456;2022-10-31T07:20:55;11.32;;;1.73;;
4061;SDS011;2046;47.064;15.456;2022-10-31T07:23:21;7.57;;;1.90;;
4061;SDS011;2046;47.064;15.456;2022-10-31T07:25:48;4.97;;;1.70;;
4061;SDS011;2046;47.064;15.456;2022-10-31T07:28:14;4.25;;;1.85;;
4061;SDS011;2046;47.064;15.456;2022-10-31T07:30:41;7.57;;;2.22;;
4061;SDS011;2046;47.064;15.456;2022-10-31T07:33:07;6.40;;;1.73;;
4061;SDS011;2046;47.064;15.456;2022-10-31T07:35:34;6.28;;;1.83;;
4061;SDS011;2046;47.064;15.456;2022-10-31T07:38:08;5.22;;;1.88;;
4061;SDS011;2046;47.064;15.456;2022-10-31T07:40:35;7.07;;;1.80;;
4061;SDS011;2046;47.064;15.456;2022-10-31T07:43:01;11.73;;;2.47;;
4061;SDS011;2046;47.064;15.456;2022-10-31T07:45:28;2.83;;;1.63;;
4061;SDS011;2046;47.064;15.456;2022-10-31T07:47:55;5.40;;;1.70;;
4061;SDS011;2046;47.064;15.456;2022-10-31T07:50:25;8.88;;;1.92;;
4061;SDS011;2046;47.064;15.456;2022-10-31T07:53:25;12.13;;;2.00;;
4061;SDS011;2046;47.064;15.456;2022-10-31T07:55:44;8.60;;;1.75;;
4061;SDS011;2046;47.064;15.456;2022-10-31T07:58:12;5.40;;;1.70;;
4061;SDS011;2046;47.064;15.456;2022-10-31T08:00:39;9.82;;;1.90;;
4061;SDS011;2046;47.064;15.456;2022-10-31T08:03:10;8.13;;;1.48;;
4061;SDS011;2046;47.064;15.456;2022-10-31T08:05:37;12.25;;;2.33;;
4061;SDS011;2046;47.064;15.456;2022-10-31T08:08:04;9.35;;;1.83;;
4061;SDS011;2046;47.064;15.456;2022-10-31T08:10:31;14.35;;;2.10;;
4061;SDS011;2046;47.064;15.456;2022-10-31T08:12:58;5.57;;;1.98;;
4061;SDS011;2046;47.064;15.456;2022-10-31T08:15:25;7.68;;;1.35;;
4061;SDS011;2046;47.064;15.456;2022-10-31T08:17:52;4.88;;;1.70;;
4061;SDS011;2046;47.064;15.456;2022-10-31T08:20:19;3.95;;;1.70;;
4061;SDS011;2046;47.064;15.456;2022-10-31T08:23:02;6.28;;;1.73;;
4061;SDS011;2046;47.064;15.456;2022-10-31T08:25:29;8.02;;;1.65;;
4061;SDS011;2046;47.064;15.456;2022-10-31T08:28:03;10.05;;;2.10;;
4061;SDS011;2046;47.064;15.456;2022-10-31T08:30:30;4.70;;;1.88;;
4061;SDS011;2046;47.064;15.456;2022-10-31T08:33:01;7.15;;;1.80;;
4061;SDS011;2046;47.064;15.456;2022-10-31T08:35:28;1.83;;;1.35;;
4061;SDS011;2046;47.064;15.456;2022-10-31T08:37:55;5.25;;;2.30;;
4061;SDS011;2046;47.064;15.456;2022-10-31T08:40:23;4.28;;;1.80;;
4061;SDS011;2046;47.064;15.456;2022-10-31T08:42:59;4.45;;;1.70;;
4061;SDS011;2046;47.064;15.456;2022-10-31T08:45:27;4.00;;;1.83;;
4061;SDS011;2046;47.064;15.456;2022-10-31T08:48:01;4.55;;;1.67;;
4061;SDS011;2046;47.064;15.456;2022-10-31T08:50:29;1.80;;;1.42;;
4061;SDS011;2046;47.064;15.456;2022-10-31T08:52:59;3.45;;;1.75;;
4061;SDS011;2046;47.064;15.456;2022-10-31T08:55:32;9.45;;;2.22;;
4061;SDS011;2046;47.064;15.456;2022-10-31T08:57:59;3.90;;;1.70;;
4061;SDS011;2046;47.064;15.456;2022-10-31T09:00:26;3.17;;;1.88;;
4061;SDS011;2046;47.064;15.456;2022-10-31T09:02:56;3.03;;;2.00;;
4061;SDS011;2046;47.064;15.456;2022-10-31T09:05:23;3.28;;;1.90;;
4061;SDS011;2046;47.064;15.456;2022-10-31T09:07:50;2.10;;;1.77;;
4061;SDS011;2046;47.064;15.456;2022-10-31T09:10:17;2.22;;;1.85;;
4061;SDS011;2046;47.064;15.456;2022-10-31T09:12:43;2.15;;;1.75;;
4061;SDS011;2046;47.064;15.456;2022-10-31T09:15:10;2.88;;;1.60;;
4061;SDS011;2046;47.064;15.456;2022-10-31T09:17:37;2.35;;;2.15;;
4061;SDS011;2046;47.064;15.456;2022-10-31T09:20:03;4.28;;;1.92;;
4061;SDS011;2046;47.064;15.456;2022-10-31T09:22:30;4.82;;;2.00;;
4061;SDS011;2046;47.064;15.456;2022-10-31T09:24:56;1.95;;;1.60;;
4061;SDS011;2046;47.064;15.456;2022-10-31T09:27:23;2.20;;;2.00;;
4061;SDS011;2046;47.064;15.456;2022-10-31T09:29:49;4.38;;;1.80;;
4061;SDS011;2046;47.064;15.456;2022-10-31T09:32:16;4.20;;;1.88;;
4061;SDS011;2046;47.064;15.456;2022-10-31T09:34:42;3.00;;;2.15;;
4061;SDS011;2046;47.064;15.456;2022-10-31T09:37:09;5.47;;;2.10;;
4061;SDS011;2046;47.064;15.456;2022-10-31T09:39:35;2.13;;;1.92;;
4061;SDS011;2046;47.064;15.456;2022-10-31T09:47:00;2.78;;;2.22;;
4061;SDS011;2046;47.064;15.456;2022-10-31T09:52:12;2.17;;;1.98;;
4061;SDS011;2046;47.064;15.456;2022-10-31T09:54:45;3.08;;;2.17;;
4061;SDS011;2046;47.064;15.456;2022-10-31T09:57:12;2.58;;;2.17;;
4061;SDS011;2046;47.064;15.456;2022-10-31T09:59:39;5.65;;;2.20;;
4061;SDS011;2046;47.064;15.456;2022-10-31T10:04:56;4.00;;;1.98;;
4061;SDS011;2046;47.064;15.456;2022-10-31T10:09:59;3.50;;;2.45;;
4061;SDS011;2046;47.064;15.456;2022-10-31T10:15:25;3.83;;;2.20;;
4061;SDS011;2046;47.064;15.456;2022-10-31T10:22:52;4.00;;;2.50;;
4061;SDS011;2046;47.064;15.456;2022-10-31T10:30:59;10.75;;;2.53;;
4061;SDS011;2046;47.064;15.456;2022-10-31T10:33:36;3.80;;;2.38;;
4061;SDS011;2046;47.064;15.456;2022-10-31T10:36:14;17.92;;;3.67;;
4061;SDS011;2046;47.064;15.456;2022-10-31T10:38:47;9.02;;;3.20;;
4061;SDS011;2046;47.064;15.456;2022-10-31T10:41:19;8.65;;;3.38;;
4061;SDS011;2046;47.064;15.456;2022-10-31T10:43:49;11.77;;;3.45;;
4061;SDS011;2046;47.064;15.456;2022-10-31T10:46:17;6.28;;;3.08;;
4061;SDS011;2046;47.064;15.456;2022-10-31T10:49:15;3.15;;;2.40;;
4061;SDS011;2046;47.064;15.456;2022-10-31T10:51:59;5.88;;;2.80;;
4061;SDS011;2046;47.064;15.456;2022-10-31T10:59:58;3.25;;;2.50;;
4061;SDS011;2046;47.064;15.456;2022-10-31T11:02:27;2.90;;;2.60;;
4061;SDS011;2046;47.064;15.456;2022-10-31T11:04:54;6.30;;;2.85;;
4061;SDS011;2046;47.064;15.456;2022-10-31T11:07:21;4.68;;;2.88;;
4061;SDS011;2046;47.064;15.456;2022-10-31T11:09:48;4.20;;;2.80;;
4061;SDS011;2046;47.064;15.456;2022-10-31T11:12:22;8.57;;;2.97;;
4061;SDS011;2046;47.064;15.456;2022-10-31T11:14:51;7.95;;;3.75;;
4061;SDS011;2046;47.064;15.456;2022-10-31T11:17:20;10.75;;;2.83;;
4061;SDS011;2046;47.064;15.456;2022-10-31T11:19:54;6.47;;;2.60;;
4061;SDS011;2046;47.064;15.456;2022-10-31T11:22:25;6.20;;;3.05;;
4061;SDS011;2046;47.064;15.456;2022-10-31T11:24:52;4.63;;;2.75;;
4061;SDS011;2046;47.064;15.456;2022-10-31T11:27:22;5.18;;;2.40;;
4061;SDS011;2046;47.064;15.456;2022-10-31T11:29:50;4.20;;;2.65;;
4061;SDS011;2046;47.064;15.456;2022-10-31T11:32:23;8.52;;;3.00;;
4061;SDS011;2046;47.064;15.456;2022-10-31T11:34:51;5.53;;;2.63;;
4061;SDS011;2046;47.064;15.456;2022-10-31T11:37:26;8.15;;;2.78;;
4061;SDS011;2046;47.064;15.456;2022-10-31T11:39:57;8.00;;;3.38;;
4061;SDS011;2046;47.064;15.456;2022-10-31T11:42:26;5.05;;;2.88;;
4061;SDS011;2046;47.064;15.456;2022-10-31T11:44:53;3.53;;;2.85;;
4061;SDS011;2046;47.064;15.456;2022-10-31T11:47:27;6.35;;;2.97;;
4061;SDS011;2046;47.064;15.456;2022-10-31T11:49:54;7.28;;;2.78;;
4061;SDS011;2046;47.064;15.456;2022-10-31T11:52:23;14.63;;;3.83;;
4061;SDS011;2046;47.064;15.456;2022-10-31T11:54:54;7.72;;;3.60;;
4061;SDS011;2046;47.064;15.456;2022-10-31T11:57:25;11.57;;;3.40;;
4061;SDS011;2046;47.064;15.456;2022-10-31T11:59:52;11.80;;;3.45;;
4061;SDS011;2046;47.064;15.456;2022-10-31T12:02:20;9.18;;;3.25;;
4061;SDS011;2046;47.064;15.456;2022-10-31T12:04:48;7.13;;;3.38;;
4061;SDS011;2046;47.064;15.456;2022-10-31T12:07:16;12.57;;;4.80;;
4061;SDS011;2046;47.064;15.456;2022-10-31T12:09:43;10.97;;;5.20;;
4061;SDS011;2046;47.064;15.456;2022-10-31T12:17:42;8.52;;;5.90;;
4061;SDS011;2046;47.064;15.456;2022-10-31T12:23:06;17.38;;;7.35;;
4061;SDS011;2046;47.064;15.456;2022-10-31T12:28:22;12.63;;;8.23;;
4061;SDS011;2046;47.064;15.456;2022-10-31T12:33:42;19.98;;;9.48;;
4061;SDS011;2046;47.064;15.456;2022-10-31T12:39:05;10.98;;;7.38;;
4061;SDS011;2046;47.064;15.456;2022-10-31T12:41:39;12.30;;;6.53;;
4061;SDS011;2046;47.064;15.456;2022-10-31T12:51:37;12.10;;;5.50;;
4061;SDS011;2046;47.064;15.456;2022-10-31T12:59:10;7.10;;;5.03;;
4061;SDS011;2046;47.064;15.456;2022-10-31T13:01:45;9.27;;;5.47;;
4061;SDS011;2046;47.064;15.456;2022-10-31T13:04:16;10.68;;;5.40;;
4061;SDS011;2046;47.064;15.456;2022-10-31T13:06:47;11.45;;;4.60;;
4061;SDS011;2046;47.064;15.456;2022-10-31T13:09:17;8.98;;;5.20;;
4061;SDS011;2046;47.064;15.456;2022-10-31T13:11:45;8.88;;;5.32;;
4061;SDS011;2046;47.064;15.456;2022-10-31T13:16:46;9.68;;;5.40;;
4061;SDS011;2046;47.064;15.456;2022-10-31T13:19:17;12.05;;;5.30;;
4061;SDS011;2046;47.064;15.456;2022-10-31T13:21:50;12.93;;;5.13;;
4061;SDS011;2046;47.064;15.456;2022-10-31T13:24:19;8.77;;;5.20;;
4061;SDS011;2046;47.064;15.456;2022-10-31T13:26:50;9.05;;;4.50;;
4061;SDS011;2046;47.064;15.456;2022-10-31T13:31:44;8.88;;;3.90;;
4061;SDS011;2046;47.064;15.456;2022-10-31T13:34:23;9.80;;;5.28;;
4061;SDS011;2046;47.064;15.456;2022-10-31T13:42:23;8.18;;;4.50;;
4061;SDS011;2046;47.064;15.456;2022-10-31T13:44:51;9.70;;;4.85;;
4061;SDS011;2046;47.064;15.456;2022-10-31T13:47:22;9.55;;;5.10;;
4061;SDS011;2046;47.064;15.456;2022-10-31T13:49:49;6.72;;;4.82;;
4061;SDS011;2046;47.064;15.456;2022-10-31T13:52:23;7.68;;;4.70;;
4061;SDS011;2046;47.064;15.456;2022-10-31T13:54:51;9.32;;;4.57;;
4061;SDS011;2046;47.064;15.456;2022-10-31T13:57:26;6.75;;;4.50;;
4061;SDS011;2046;47.064;15.456;2022-10-31T14:00:00;7.38;;;4.43;;
4061;SDS011;2046;47.064;15.456;2022-10-31T14:02:28;6.72;;;5.00;;
4061;SDS011;2046;47.064;15.456;2022-10-31T14:04:57;6.85;;;4.70;;
4061;SDS011;2046;47.064;15.456;2022-10-31T14:07:24;6.40;;;4.68;;
4061;SDS011;2046;47.064;15.456;2022-10-31T14:09:59;6.68;;;4.85;;
4061;SDS011;2046;47.064;15.456;2022-10-31T14:12:29;7.82;;;5.25;;
4061;SDS011;2046;47.064;15.456;2022-10-31T14:14:58;8.02;;;4.95;;
4061;SDS011;2046;47.064;15.456;2022-10-31T14:17:26;8.27;;;4.72;;
4061;SDS011;2046;47.064;15.456;2022-10-31T14:19:58;12.55;;;5.25;;
4061;SDS011;2046;47.064;15.456;2022-10-31T14:22:28;7.13;;;4.80;;
4061;SDS011;2046;47.064;15.456;2022-10-31T14:24:56;7.07;;;4.65;;
4061;SDS011;2046;47.064;15.456;2022-10-31T14:29:52;8.65;;;5.40;;
4061;SDS011;2046;47.064;15.456;2022-10-31T14:32:25;7.40;;;5.07;;
4061;SDS011;2046;47.064;15.456;2022-10-31T14:34:56;9.07;;;5.68;;
4061;SDS011;2046;47.064;15.456;2022-10-31T14:40:20;9.80;;;5.78;;
4061;SDS011;2046;47.064;15.456;2022-10-31T14:45:36;8.90;;;5.45;;
4061;SDS011;2046;47.064;15.456;2022-10-31T14:50:44;8.70;;;5.40;;
4061;SDS011;2046;47.064;15.456;2022-10-31T14:53:14;10.73;;;6.05;;
4061;SDS011;2046;47.064;15.456;2022-10-31T14:55:45;9.55;;;6.35;;
4061;SDS011;2046;47.064;15.456;2022-10-31T14:58:15;19.58;;;12.10;;
4061;SDS011;2046;47.064;15.456;2022-10-31T15:00:43;19.33;;;11.77;;
4061;SDS011;2046;47.064;15.456;2022-10-31T15:05:40;17.33;;;11.55;;
4061;SDS011;2046;47.064;15.456;2022-10-31T15:08:26;24.77;;;15.02;;
4061;SDS011;2046;47.064;15.456;2022-10-31T15:10:53;18.55;;;12.15;;
4061;SDS011;2046;47.064;15.456;2022-10-31T15:13:22;16.98;;;11.55;;
4061;SDS011;2046;47.064;15.456;2022-10-31T15:15:49;19.20;;;13.07;;
4061;SDS011;2046;47.064;15.456;2022-10-31T15:18:19;17.13;;;11.65;;
4061;SDS011;2046;47.064;15.456;2022-10-31T15:20:46;19.17;;;11.68;;
4061;SDS011;2046;47.064;15.456;2022-10-31T15:23:21;20.45;;;12.85;;
4061;SDS011;2046;47.064;15.456;2022-10-31T15:25:48;22.77;;;13.82;;
4061;SDS011;2046;47.064;15.456;2022-10-31T15:28:19;23.48;;;15.15;;
4061;SDS011;2046;47.064;15.456;2022-10-31T15:30:51;17.92;;;10.77;;
4061;SDS011;2046;47.064;15.456;2022-10-31T15:33:19;19.83;;;14.00;;
4061;SDS011;2046;47.064;15.456;2022-10-31T15:35:53;20.90;;;14.13;;
4061;SDS011;2046;47.064;15.456;2022-10-31T15:38:20;17.20;;;11.95;;
4061;SDS011;2046;47.064;15.456;2022-10-31T15:40:54;28.50;;;20.38;;
4061;SDS011;2046;47.064;15.456;2022-10-31T15:43:21;19.88;;;11.68;;
4061;SDS011;2046;47.064;15.456;2022-10-31T15:45:48;16.55;;;11.07;;
4061;SDS011;2046;47.064;15.456;2022-10-31T15:48:19;18.15;;;10.43;;
4061;SDS011;2046;47.064;15.456;2022-10-31T15:50:48;15.20;;;9.55;;
4061;SDS011;2046;47.064;15.456;2022-10-31T15:53:17;16.05;;;8.48;;
4061;SDS011;2046;47.064;15.456;2022-10-31T15:56:06;14.18;;;9.32;;
4061;SDS011;2046;47.064;15.456;2022-10-31T15:58:32;12.55;;;8.65;;
4061;SDS011;2046;47.064;15.456;2022-10-31T16:01:06;15.00;;;9.02;;
4061;SDS011;2046;47.064;15.456;2022-10-31T16:03:54;12.75;;;8.13;;
4061;SDS011;2046;47.064;15.456;2022-10-31T16:06:22;12.43;;;8.77;;
4061;SDS011;2046;47.064;15.456;2022-10-31T16:08:49;11.02;;;8.10;;
4061;SDS011;2046;47.064;15.456;2022-10-31T16:11:38;12.43;;;8.48;;
4061;SDS011;2046;47.064;15.456;2022-10-31T16:14:07;10.32;;;7.72;;
4061;SDS011;2046;47.064;15.456;2022-10-31T16:16:45;12.10;;;8.15;;
4061;SDS011;2046;47.064;15.456;2022-10-31T16:19:21;13.27;;;8.20;;
4061;SDS011;2046;47.064;15.456;2022-10-31T16:21:50;10.55;;;7.93;;
4061;SDS011;2046;47.064;15.456;2022-10-31T16:24:23;10.80;;;7.68;;
4061;SDS011;2046;47.064;15.456;2022-10-31T16:26:51;11.73;;;8.32;;
4061;SDS011;2046;47.064;15.456;2022-10-31T16:29:32;10.90;;;7.93;;
4061;SDS011;2046;47.064;15.456;2022-10-31T16:31:59;14.25;;;8.55;;
4061;SDS011;2046;47.064;15.456;2022-10-31T16:34:25;12.27;;;7.65;;
4061;SDS011;2046;47.064;15.456;2022-10-31T16:36:52;14.25;;;7.82;;
4061;SDS011;2046;47.064;15.456;2022-10-31T16:39:19;13.38;;;7.82;;
4061;SDS011;2046;47.064;15.456;2022-10-31T16:41:46;12.70;;;8.63;;
4061;SDS011;2046;47.064;15.456;2022-10-31T16:44:22;12.88;;;8.07;;
4061;SDS011;2046;47.064;15.456;2022-10-31T16:46:57;12.95;;;8.35;;
4061;SDS011;2046;47.064;15.456;2022-10-31T16:49:33;13.27;;;7.90;;
4061;SDS011;2046;47.064;15.456;2022-10-31T16:51:59;15.38;;;9.48;;
4061;SDS011;2046;47.064;15.456;2022-10-31T16:54:26;12.95;;;8.25;;
4061;SDS011;2046;47.064;15.456;2022-10-31T16:56:55;18.55;;;9.13;;
4061;SDS011;2046;47.064;15.456;2022-10-31T16:59:21;13.98;;;8.70;;
4061;SDS011;2046;47.064;15.456;2022-10-31T17:01:48;13.32;;;9.15;;
4061;SDS011;2046;47.064;15.456;2022-10-31T17:04:15;14.93;;;7.97;;
4061;SDS011;2046;47.064;15.456;2022-10-31T17:06:42;14.50;;;8.55;;
4061;SDS011;2046;47.064;15.456;2022-10-31T17:09:08;12.27;;;7.28;;